sensor_id;sensor_type;location;lat;lon;timestamp;P1;durP1;ratioP1;P2;durP2;ratioP2
16063;SDS011;8136;53.172;8.256;2022-07-15T00:02:03;5.53;;;1.47;;
16063;SDS011;8136;53.172;8.256;2022-07-15T00:04:31;3.43;;;1.30;;
16063;SDS011;8136;53.172;8.256;2022-07-15T00:06:58;6.30;;;1.50;;
16063;SDS011;8136;53.172;8.256;2022-07-15T00:09:25;4.00;;;1.33;;
16063;SDS011;8136;53.172;8.256;2022-07-15T00:12:05;4.13;;;1.23;;
16063;SDS011;8136;53.172;8.256;2022-07-15T00:14:32;2.93;;;1.10;;
16063;SDS011;8136;53.172;8.256;2022-07-15T00:16:59;4.47;;;1.27;;
16063;SDS011;8136;53.172;8.256;2022-07-15T00:19:26;3.87;;;1.00;;
16063;SDS011;8136;53.172;8.256;2022-07-15T00:21:54;5.07;;;1.40;;
16063;SDS011;8136;53.172;8.256;2022-07-15T00:24:21;5.73;;;1.33;;
16063;SDS011;8136;53.172;8.256;2022-07-15T00:26:49;5.30;;;1.27;;
16063;SDS011;8136;53.172;8.256;2022-07-15T00:29:16;3.93;;;1.20;;
16063;SDS011;8136;53.172;8.256;2022-07-15T00:31:43;6.57;;;1.40;;
16063;SDS011;8136;53.172;8.256;2022-07-15T00:34:09;5.77;;;1.20;;
16063;SDS011;8136;53.172;8.256;2022-07-15T00:36:36;8.20;;;1.77;;
16063;SDS011;8136;53.172;8.256;2022-07-15T00:39:05;4.90;;;1.20;;
16063;SDS011;8136;53.172;8.256;2022-07-15T00:41:35;7.63;;;1.40;;
16063;SDS011;8136;53.172;8.256;2022-07-15T00:44:02;6.10;;;1.33;;
16063;SDS011;8136;53.172;8.256;2022-07-15T00:46:29;4.50;;;1.17;;
16063;SDS011;8136;53.172;8.256;2022-07-15T00:48:56;3.87;;;1.37;;
16063;SDS011;8136;53.172;8.256;2022-07-15T00:51:23;5.20;;;1.37;;
16063;SDS011;8136;53.172;8.256;2022-07-15T00:53:50;4.03;;;1.20;;
16063;SDS011;8136;53.172;8.256;2022-07-15T00:56:20;3.73;;;1.20;;
16063;SDS011;8136;53.172;8.256;2022-07-15T00:58:51;5.90;;;1.30;;
16063;SDS011;8136;53.172;8.256;2022-07-15T01:01:18;5.27;;;1.10;;
16063;SDS011;8136;53.172;8.256;2022-07-15T01:03:45;4.80;;;1.10;;
16063;SDS011;8136;53.172;8.256;2022-07-15T01:06:13;3.93;;;0.97;;
16063;SDS011;8136;53.172;8.256;2022-07-15T01:08:40;3.93;;;0.93;;
16063;SDS011;8136;53.172;8.256;2022-07-15T01:11:07;5.80;;;1.20;;
16063;SDS011;8136;53.172;8.256;2022-07-15T01:13:36;3.07;;;1.30;;
16063;SDS011;8136;53.172;8.256;2022-07-15T01:16:03;5.13;;;1.50;;
16063;SDS011;8136;53.172;8.256;2022-07-15T01:18:30;2.33;;;1.00;;
16063;SDS011;8136;53.172;8.256;2022-07-15T01:20:59;6.47;;;1.20;;
16063;SDS011;8136;53.172;8.256;2022-07-15T01:23:25;5.50;;;1.07;;
16063;SDS011;8136;53.172;8.256;2022-07-15T01:25:52;4.67;;;1.03;;
16063;SDS011;8136;53.172;8.256;2022-07-15T01:28:20;5.73;;;0.93;;
16063;SDS011;8136;53.172;8.256;2022-07-15T01:30:47;5.13;;;0.93;;
16063;SDS011;8136;53.172;8.256;2022-07-15T01:33:14;2.63;;;1.00;;
16063;SDS011;8136;53.172;8.256;2022-07-15T01:35:41;6.73;;;1.10;;
16063;SDS011;8136;53.172;8.256;2022-07-15T01:38:09;5.90;;;1.20;;
16063;SDS011;8136;53.172;8.256;2022-07-15T01:40:36;3.33;;;1.10;;
16063;SDS011;8136;53.172;8.256;2022-07-15T01:43:03;6.00;;;1.10;;
16063;SDS011;8136;53.172;8.256;2022-07-15T01:45:30;3.60;;;1.00;;
16063;SDS011;8136;53.172;8.256;2022-07-15T01:47:56;2.10;;;1.07;;
16063;SDS011;8136;53.172;8.256;2022-07-15T01:50:23;7.80;;;1.07;;
16063;SDS011;8136;53.172;8.256;2022-07-15T01:52:49;4.67;;;1.20;;
16063;SDS011;8136;53.172;8.256;2022-07-15T01:55:18;7.47;;;1.63;;
16063;SDS011;8136;53.172;8.256;2022-07-15T01:57:45;8.50;;;1.63;;
16063;SDS011;8136;53.172;8.256;2022-07-15T02:00:12;3.67;;;0.90;;
16063;SDS011;8136;53.172;8.256;2022-07-15T02:02:41;6.53;;;1.30;;
16063;SDS011;8136;53.172;8.256;2022-07-15T02:05:08;3.93;;;1.13;;
16063;SDS011;8136;53.172;8.256;2022-07-15T02:07:34;2.90;;;1.07;;
16063;SDS011;8136;53.172;8.256;2022-07-15T02:10:03;5.07;;;1.30;;
16063;SDS011;8136;53.172;8.256;2022-07-15T02:12:32;4.83;;;1.17;;
16063;SDS011;8136;53.172;8.256;2022-07-15T02:14:59;2.97;;;0.83;;
16063;SDS011;8136;53.172;8.256;2022-07-15T02:17:26;5.73;;;1.30;;
16063;SDS011;8136;53.172;8.256;2022-07-15T02:19:52;5.60;;;1.33;;
16063;SDS011;8136;53.172;8.256;2022-07-15T02:22:19;6.07;;;1.30;;
16063;SDS011;8136;53.172;8.256;2022-07-15T02:24:46;3.67;;;1.30;;
16063;SDS011;8136;53.172;8.256;2022-07-15T02:27:12;6.43;;;1.30;;
16063;SDS011;8136;53.172;8.256;2022-07-15T02:29:41;4.60;;;1.10;;
16063;SDS011;8136;53.172;8.256;2022-07-15T02:32:07;5.00;;;1.33;;
16063;SDS011;8136;53.172;8.256;2022-07-15T02:34:34;5.83;;;1.10;;
16063;SDS011;8136;53.172;8.256;2022-07-15T02:37:01;6.20;;;1.30;;
16063;SDS011;8136;53.172;8.256;2022-07-15T02:39:28;5.87;;;1.50;;
16063;SDS011;8136;53.172;8.256;2022-07-15T02:41:56;6.67;;;1.87;;
16063;SDS011;8136;53.172;8.256;2022-07-15T02:44:22;6.30;;;1.57;;
16063;SDS011;8136;53.172;8.256;2022-07-15T02:46:50;5.97;;;1.50;;
16063;SDS011;8136;53.172;8.256;2022-07-15T02:49:17;4.30;;;1.10;;
16063;SDS011;8136;53.172;8.256;2022-07-15T02:51:44;7.07;;;1.33;;
16063;SDS011;8136;53.172;8.256;2022-07-15T02:54:11;2.87;;;1.00;;
16063;SDS011;8136;53.172;8.256;2022-07-15T02:56:37;4.73;;;1.50;;
16063;SDS011;8136;53.172;8.256;2022-07-15T02:59:04;5.67;;;1.10;;
16063;SDS011;8136;53.172;8.256;2022-07-15T03:01:31;6.20;;;1.93;;
16063;SDS011;8136;53.172;8.256;2022-07-15T03:03:59;4.77;;;1.43;;
16063;SDS011;8136;53.172;8.256;2022-07-15T03:06:25;4.40;;;1.30;;
16063;SDS011;8136;53.172;8.256;2022-07-15T03:08:52;8.73;;;1.40;;
16063;SDS011;8136;53.172;8.256;2022-07-15T03:11:19;4.90;;;1.33;;
16063;SDS011;8136;53.172;8.256;2022-07-15T03:13:46;6.13;;;1.83;;
16063;SDS011;8136;53.172;8.256;2022-07-15T03:16:12;5.53;;;1.60;;
16063;SDS011;8136;53.172;8.256;2022-07-15T03:18:39;3.23;;;1.23;;
16063;SDS011;8136;53.172;8.256;2022-07-15T03:21:07;2.67;;;1.20;;
16063;SDS011;8136;53.172;8.256;2022-07-15T03:23:35;5.50;;;1.50;;
16063;SDS011;8136;53.172;8.256;2022-07-15T03:26:01;5.93;;;1.33;;
16063;SDS011;8136;53.172;8.256;2022-07-15T03:28:28;6.87;;;1.57;;
16063;SDS011;8136;53.172;8.256;2022-07-15T03:30:55;7.23;;;1.70;;
16063;SDS011;8136;53.172;8.256;2022-07-15T03:33:21;5.93;;;1.57;;
16063;SDS011;8136;53.172;8.256;2022-07-15T03:35:48;6.97;;;2.00;;
16063;SDS011;8136;53.172;8.256;2022-07-15T03:38:16;7.70;;;1.90;;
16063;SDS011;8136;53.172;8.256;2022-07-15T03:40:43;10.27;;;2.00;;
16063;SDS011;8136;53.172;8.256;2022-07-15T03:43:10;7.70;;;1.40;;
16063;SDS011;8136;53.172;8.256;2022-07-15T03:45:37;6.77;;;1.60;;
16063;SDS011;8136;53.172;8.256;2022-07-15T03:48:04;5.30;;;1.50;;
16063;SDS011;8136;53.172;8.256;2022-07-15T03:50:31;4.27;;;1.47;;
16063;SDS011;8136;53.172;8.256;2022-07-15T03:52:58;7.07;;;1.43;;
16063;SDS011;8136;53.172;8.256;2022-07-15T03:55:26;4.30;;;1.40;;
16063;SDS011;8136;53.172;8.256;2022-07-15T03:57:53;5.00;;;1.63;;
16063;SDS011;8136;53.172;8.256;2022-07-15T04:00:20;7.40;;;1.77;;
16063;SDS011;8136;53.172;8.256;2022-07-15T04:02:47;5.13;;;1.30;;
16063;SDS011;8136;53.172;8.256;2022-07-15T04:05:13;4.40;;;1.37;;
16063;SDS011;8136;53.172;8.256;2022-07-15T04:07:40;5.73;;;1.90;;
16063;SDS011;8136;53.172;8.256;2022-07-15T04:10:07;4.37;;;1.40;;
16063;SDS011;8136;53.172;8.256;2022-07-15T04:12:36;5.10;;;1.20;;
16063;SDS011;8136;53.172;8.256;2022-07-15T04:15:03;6.00;;;1.70;;
16063;SDS011;8136;53.172;8.256;2022-07-15T04:17:30;6.93;;;1.60;;
16063;SDS011;8136;53.172;8.256;2022-07-15T04:19:57;4.40;;;1.40;;
16063;SDS011;8136;53.172;8.256;2022-07-15T04:22:23;5.97;;;1.73;;
16063;SDS011;8136;53.172;8.256;2022-07-15T04:24:50;5.50;;;1.47;;
16063;SDS011;8136;53.172;8.256;2022-07-15T04:27:17;2.83;;;1.10;;
16063;SDS011;8136;53.172;8.256;2022-07-15T04:29:45;4.17;;;1.27;;
16063;SDS011;8136;53.172;8.256;2022-07-15T04:32:12;3.03;;;1.27;;
16063;SDS011;8136;53.172;8.256;2022-07-15T04:34:39;3.83;;;1.20;;
16063;SDS011;8136;53.172;8.256;2022-07-15T04:37:05;4.70;;;1.17;;
16063;SDS011;8136;53.172;8.256;2022-07-15T04:39:32;4.03;;;0.83;;
16063;SDS011;8136;53.172;8.256;2022-07-15T04:41:59;5.80;;;1.00;;
16063;SDS011;8136;53.172;8.256;2022-07-15T04:44:26;5.53;;;1.17;;
16063;SDS011;8136;53.172;8.256;2022-07-15T04:46:54;4.70;;;1.10;;
16063;SDS011;8136;53.172;8.256;2022-07-15T04:49:20;4.17;;;1.00;;
16063;SDS011;8136;53.172;8.256;2022-07-15T04:52:05;8.37;;;1.43;;
16063;SDS011;8136;53.172;8.256;2022-07-15T04:54:31;5.17;;;1.23;;
16063;SDS011;8136;53.172;8.256;2022-07-15T04:56:58;6.80;;;1.13;;
16063;SDS011;8136;53.172;8.256;2022-07-15T04:59:25;5.03;;;1.07;;
16063;SDS011;8136;53.172;8.256;2022-07-15T05:01:52;6.03;;;1.20;;
16063;SDS011;8136;53.172;8.256;2022-07-15T05:04:20;3.93;;;1.10;;
16063;SDS011;8136;53.172;8.256;2022-07-15T05:06:48;3.17;;;1.03;;
16063;SDS011;8136;53.172;8.256;2022-07-15T05:09:14;4.47;;;1.03;;
16063;SDS011;8136;53.172;8.256;2022-07-15T05:11:41;3.33;;;0.90;;
16063;SDS011;8136;53.172;8.256;2022-07-15T05:14:08;4.77;;;1.27;;
16063;SDS011;8136;53.172;8.256;2022-07-15T05:16:35;2.30;;;0.90;;
16063;SDS011;8136;53.172;8.256;2022-07-15T05:19:03;3.20;;;0.70;;
16063;SDS011;8136;53.172;8.256;2022-07-15T05:21:30;3.80;;;0.70;;
16063;SDS011;8136;53.172;8.256;2022-07-15T05:23:56;4.73;;;1.07;;
16063;SDS011;8136;53.172;8.256;2022-07-15T05:26:23;2.90;;;0.87;;
16063;SDS011;8136;53.172;8.256;2022-07-15T05:28:50;3.00;;;0.90;;
16063;SDS011;8136;53.172;8.256;2022-07-15T05:31:17;4.67;;;0.80;;
16063;SDS011;8136;53.172;8.256;2022-07-15T05:33:43;2.40;;;0.60;;
16063;SDS011;8136;53.172;8.256;2022-07-15T05:36:12;3.97;;;0.77;;
16063;SDS011;8136;53.172;8.256;2022-07-15T05:38:39;3.67;;;0.80;;
16063;SDS011;8136;53.172;8.256;2022-07-15T05:41:06;2.63;;;1.03;;
16063;SDS011;8136;53.172;8.256;2022-07-15T05:43:33;4.27;;;1.13;;
16063;SDS011;8136;53.172;8.256;2022-07-15T05:46:00;2.93;;;0.90;;
16063;SDS011;8136;53.172;8.256;2022-07-15T05:48:27;2.87;;;0.80;;
16063;SDS011;8136;53.172;8.256;2022-07-15T05:50:54;3.17;;;0.90;;
16063;SDS011;8136;53.172;8.256;2022-07-15T05:53:22;1.53;;;0.93;;
16063;SDS011;8136;53.172;8.256;2022-07-15T05:55:49;6.00;;;0.80;;
16063;SDS011;8136;53.172;8.256;2022-07-15T05:58:17;3.63;;;1.13;;
16063;SDS011;8136;53.172;8.256;2022-07-15T06:00:44;4.70;;;1.00;;
16063;SDS011;8136;53.172;8.256;2022-07-15T06:03:11;3.33;;;0.90;;
16063;SDS011;8136;53.172;8.256;2022-07-15T06:05:37;4.10;;;0.77;;
16063;SDS011;8136;53.172;8.256;2022-07-15T06:08:04;5.47;;;0.93;;
16063;SDS011;8136;53.172;8.256;2022-07-15T06:10:33;2.40;;;0.80;;
16063;SDS011;8136;53.172;8.256;2022-07-15T06:13:00;3.57;;;0.97;;
16063;SDS011;8136;53.172;8.256;2022-07-15T06:15:27;4.77;;;0.90;;
16063;SDS011;8136;53.172;8.256;2022-07-15T06:17:54;2.17;;;0.80;;
16063;SDS011;8136;53.172;8.256;2022-07-15T06:20:21;3.57;;;1.00;;
16063;SDS011;8136;53.172;8.256;2022-07-15T06:22:48;3.57;;;0.90;;
16063;SDS011;8136;53.172;8.256;2022-07-15T06:25:15;2.83;;;1.00;;
16063;SDS011;8136;53.172;8.256;2022-07-15T06:27:43;3.63;;;1.00;;
16063;SDS011;8136;53.172;8.256;2022-07-15T06:30:10;4.77;;;1.00;;
16063;SDS011;8136;53.172;8.256;2022-07-15T06:32:37;2.77;;;1.00;;
16063;SDS011;8136;53.172;8.256;2022-07-15T06:35:04;3.17;;;1.00;;
16063;SDS011;8136;53.172;8.256;2022-07-15T06:37:31;6.17;;;1.17;;
16063;SDS011;8136;53.172;8.256;2022-07-15T06:39:59;5.40;;;0.90;;
16063;SDS011;8136;53.172;8.256;2022-07-15T06:42:25;5.07;;;0.90;;
16063;SDS011;8136;53.172;8.256;2022-07-15T06:44:54;4.70;;;1.00;;
16063;SDS011;8136;53.172;8.256;2022-07-15T06:47:20;4.47;;;1.00;;
16063;SDS011;8136;53.172;8.256;2022-07-15T06:49:47;1.93;;;0.97;;
16063;SDS011;8136;53.172;8.256;2022-07-15T06:52:14;3.97;;;1.00;;
16063;SDS011;8136;53.172;8.256;2022-07-15T06:54:42;3.93;;;1.00;;
16063;SDS011;8136;53.172;8.256;2022-07-15T06:57:08;2.00;;;0.70;;
16063;SDS011;8136;53.172;8.256;2022-07-15T06:59:37;3.43;;;0.73;;
16063;SDS011;8136;53.172;8.256;2022-07-15T07:02:05;3.13;;;0.70;;
16063;SDS011;8136;53.172;8.256;2022-07-15T07:04:32;1.40;;;0.60;;
16063;SDS011;8136;53.172;8.256;2022-07-15T07:06:58;3.47;;;0.90;;
16063;SDS011;8136;53.172;8.256;2022-07-15T07:09:25;2.00;;;0.60;;
16063;SDS011;8136;53.172;8.256;2022-07-15T07:11:52;3.00;;;0.80;;
16063;SDS011;8136;53.172;8.256;2022-07-15T07:14:19;2.17;;;0.60;;
16063;SDS011;8136;53.172;8.256;2022-07-15T07:16:45;2.90;;;0.83;;
16063;SDS011;8136;53.172;8.256;2022-07-15T07:19:14;3.40;;;0.80;;
16063;SDS011;8136;53.172;8.256;2022-07-15T07:21:41;5.57;;;1.13;;
16063;SDS011;8136;53.172;8.256;2022-07-15T07:24:07;5.80;;;0.97;;
16063;SDS011;8136;53.172;8.256;2022-07-15T07:26:34;4.30;;;0.60;;
16063;SDS011;8136;53.172;8.256;2022-07-15T07:29:02;2.90;;;0.73;;
16063;SDS011;8136;53.172;8.256;2022-07-15T07:31:30;1.50;;;0.53;;
16063;SDS011;8136;53.172;8.256;2022-07-15T07:33:57;2.20;;;0.70;;
16063;SDS011;8136;53.172;8.256;2022-07-15T07:36:25;2.43;;;1.10;;
16063;SDS011;8136;53.172;8.256;2022-07-15T07:38:52;3.50;;;0.80;;
16063;SDS011;8136;53.172;8.256;2022-07-15T07:41:19;1.43;;;0.60;;
16063;SDS011;8136;53.172;8.256;2022-07-15T07:43:46;2.60;;;0.60;;
16063;SDS011;8136;53.172;8.256;2022-07-15T07:46:14;1.37;;;0.63;;
16063;SDS011;8136;53.172;8.256;2022-07-15T07:48:42;2.50;;;0.50;;
16063;SDS011;8136;53.172;8.256;2022-07-15T07:51:09;1.13;;;0.30;;
16063;SDS011;8136;53.172;8.256;2022-07-15T07:53:37;0.90;;;0.37;;
16063;SDS011;8136;53.172;8.256;2022-07-15T07:56:04;1.20;;;0.60;;
16063;SDS011;8136;53.172;8.256;2022-07-15T07:58:31;1.67;;;0.57;;
16063;SDS011;8136;53.172;8.256;2022-07-15T08:00:58;3.03;;;0.60;;
16063;SDS011;8136;53.172;8.256;2022-07-15T08:03:24;3.23;;;0.70;;
16063;SDS011;8136;53.172;8.256;2022-07-15T08:05:52;2.43;;;0.40;;
16063;SDS011;8136;53.172;8.256;2022-07-15T08:08:20;1.20;;;0.40;;
16063;SDS011;8136;53.172;8.256;2022-07-15T08:10:50;4.00;;;0.53;;
16063;SDS011;8136;53.172;8.256;2022-07-15T08:13:19;1.70;;;0.40;;
16063;SDS011;8136;53.172;8.256;2022-07-15T08:15:49;1.13;;;0.43;;
16063;SDS011;8136;53.172;8.256;2022-07-15T08:18:16;3.20;;;1.03;;
16063;SDS011;8136;53.172;8.256;2022-07-15T08:20:44;2.57;;;0.50;;
16063;SDS011;8136;53.172;8.256;2022-07-15T08:23:11;2.73;;;0.37;;
16063;SDS011;8136;53.172;8.256;2022-07-15T08:25:39;1.27;;;0.57;;
16063;SDS011;8136;53.172;8.256;2022-07-15T08:28:07;1.30;;;0.50;;
16063;SDS011;8136;53.172;8.256;2022-07-15T08:30:34;3.10;;;0.60;;
16063;SDS011;8136;53.172;8.256;2022-07-15T08:33:01;1.57;;;0.63;;
16063;SDS011;8136;53.172;8.256;2022-07-15T08:35:28;0.90;;;0.50;;
16063;SDS011;8136;53.172;8.256;2022-07-15T08:37:55;1.43;;;0.43;;
16063;SDS011;8136;53.172;8.256;2022-07-15T08:40:23;1.23;;;0.40;;
16063;SDS011;8136;53.172;8.256;2022-07-15T08:42:50;1.60;;;0.53;;
16063;SDS011;8136;53.172;8.256;2022-07-15T08:45:18;0.60;;;0.40;;
16063;SDS011;8136;53.172;8.256;2022-07-15T08:47:46;1.40;;;0.50;;
16063;SDS011;8136;53.172;8.256;2022-07-15T08:50:13;3.17;;;0.60;;
16063;SDS011;8136;53.172;8.256;2022-07-15T08:52:42;4.00;;;1.10;;
16063;SDS011;8136;53.172;8.256;2022-07-15T08:55:10;1.07;;;0.60;;
16063;SDS011;8136;53.172;8.256;2022-07-15T08:57:37;2.30;;;0.50;;
16063;SDS011;8136;53.172;8.256;2022-07-15T09:00:05;3.87;;;0.50;;
16063;SDS011;8136;53.172;8.256;2022-07-15T09:02:36;1.07;;;0.50;;
16063;SDS011;8136;53.172;8.256;2022-07-15T09:05:18;2.67;;;0.30;;
16063;SDS011;8136;53.172;8.256;2022-07-15T09:07:51;2.30;;;0.60;;
16063;SDS011;8136;53.172;8.256;2022-07-15T09:10:20;3.60;;;0.60;;
16063;SDS011;8136;53.172;8.256;2022-07-15T09:12:48;1.57;;;0.60;;
16063;SDS011;8136;53.172;8.256;2022-07-15T09:15:28;3.03;;;0.70;;
16063;SDS011;8136;53.172;8.256;2022-07-15T09:18:08;4.90;;;0.70;;
16063;SDS011;8136;53.172;8.256;2022-07-15T09:20:37;1.60;;;0.50;;
16063;SDS011;8136;53.172;8.256;2022-07-15T09:23:05;3.07;;;0.50;;
16063;SDS011;8136;53.172;8.256;2022-07-15T09:25:32;3.43;;;0.67;;
16063;SDS011;8136;53.172;8.256;2022-07-15T09:28:00;2.00;;;0.53;;
16063;SDS011;8136;53.172;8.256;2022-07-15T09:30:28;4.13;;;0.70;;
16063;SDS011;8136;53.172;8.256;2022-07-15T09:33:15;3.70;;;0.70;;
16063;SDS011;8136;53.172;8.256;2022-07-15T09:36:03;3.23;;;0.63;;
16063;SDS011;8136;53.172;8.256;2022-07-15T09:38:33;0.90;;;0.40;;
16063;SDS011;8136;53.172;8.256;2022-07-15T09:41:05;2.47;;;0.80;;
16063;SDS011;8136;53.172;8.256;2022-07-15T09:43:41;1.30;;;0.70;;
16063;SDS011;8136;53.172;8.256;2022-07-15T09:46:10;1.33;;;0.40;;
16063;SDS011;8136;53.172;8.256;2022-07-15T09:48:42;2.90;;;0.50;;
16063;SDS011;8136;53.172;8.256;2022-07-15T09:51:09;1.10;;;0.50;;
16063;SDS011;8136;53.172;8.256;2022-07-15T09:53:37;2.53;;;0.60;;
16063;SDS011;8136;53.172;8.256;2022-07-15T09:56:06;2.70;;;0.60;;
16063;SDS011;8136;53.172;8.256;2022-07-15T09:58:36;0.63;;;0.40;;
16063;SDS011;8136;53.172;8.256;2022-07-15T10:01:04;1.87;;;0.67;;
16063;SDS011;8136;53.172;8.256;2022-07-15T10:03:32;1.80;;;0.50;;
16063;SDS011;8136;53.172;8.256;2022-07-15T10:06:01;1.13;;;0.60;;
16063;SDS011;8136;53.172;8.256;2022-07-15T10:08:29;3.63;;;0.50;;
16063;SDS011;8136;53.172;8.256;2022-07-15T10:10:58;2.87;;;0.77;;
16063;SDS011;8136;53.172;8.256;2022-07-15T10:13:31;0.73;;;0.40;;
16063;SDS011;8136;53.172;8.256;2022-07-15T10:16:17;1.03;;;0.50;;
16063;SDS011;8136;53.172;8.256;2022-07-15T10:19:02;1.93;;;0.50;;
16063;SDS011;8136;53.172;8.256;2022-07-15T10:21:38;1.50;;;0.47;;
16063;SDS011;8136;53.172;8.256;2022-07-15T10:24:33;1.80;;;0.37;;
16063;SDS011;8136;53.172;8.256;2022-07-15T10:27:29;2.63;;;0.70;;
16063;SDS011;8136;53.172;8.256;2022-07-15T10:30:05;1.07;;;0.40;;
16063;SDS011;8136;53.172;8.256;2022-07-15T10:35:35;5.13;;;0.70;;
16063;SDS011;8136;53.172;8.256;2022-07-15T10:38:21;2.87;;;0.70;;
16063;SDS011;8136;53.172;8.256;2022-07-15T10:40:56;2.00;;;0.60;;
16063;SDS011;8136;53.172;8.256;2022-07-15T10:43:36;2.50;;;0.63;;
16063;SDS011;8136;53.172;8.256;2022-07-15T10:46:17;3.70;;;0.60;;
16063;SDS011;8136;53.172;8.256;2022-07-15T10:48:46;2.77;;;0.77;;
16063;SDS011;8136;53.172;8.256;2022-07-15T11:00:26;1.43;;;0.33;;
16063;SDS011;8136;53.172;8.256;2022-07-15T11:03:06;1.73;;;0.33;;
16063;SDS011;8136;53.172;8.256;2022-07-15T11:05:34;1.67;;;0.57;;
16063;SDS011;8136;53.172;8.256;2022-07-15T11:17:16;2.13;;;0.40;;
16063;SDS011;8136;53.172;8.256;2022-07-15T11:19:52;4.13;;;0.80;;
16063;SDS011;8136;53.172;8.256;2022-07-15T11:22:21;2.87;;;0.50;;
16063;SDS011;8136;53.172;8.256;2022-07-15T11:24:51;0.77;;;0.40;;
16063;SDS011;8136;53.172;8.256;2022-07-15T11:27:19;1.27;;;0.40;;
16063;SDS011;8136;53.172;8.256;2022-07-15T11:29:49;2.13;;;0.37;;
16063;SDS011;8136;53.172;8.256;2022-07-15T11:32:19;2.17;;;0.40;;
16063;SDS011;8136;53.172;8.256;2022-07-15T11:34:48;2.53;;;0.30;;
16063;SDS011;8136;53.172;8.256;2022-07-15T11:37:16;1.70;;;0.40;;
16063;SDS011;8136;53.172;8.256;2022-07-15T11:39:47;0.53;;;0.37;;
16063;SDS011;8136;53.172;8.256;2022-07-15T11:42:19;0.83;;;0.37;;
16063;SDS011;8136;53.172;8.256;2022-07-15T11:45:06;2.47;;;0.43;;
16063;SDS011;8136;53.172;8.256;2022-07-15T11:47:34;1.13;;;0.30;;
16063;SDS011;8136;53.172;8.256;2022-07-15T11:50:15;1.23;;;0.47;;
16063;SDS011;8136;53.172;8.256;2022-07-15T11:52:42;0.60;;;0.27;;
16063;SDS011;8136;53.172;8.256;2022-07-15T11:55:09;1.07;;;0.30;;
16063;SDS011;8136;53.172;8.256;2022-07-15T11:57:36;0.60;;;0.50;;
16063;SDS011;8136;53.172;8.256;2022-07-15T12:00:03;2.13;;;0.50;;
16063;SDS011;8136;53.172;8.256;2022-07-15T12:05:01;2.83;;;0.50;;
16063;SDS011;8136;53.172;8.256;2022-07-15T12:07:38;1.23;;;0.30;;
16063;SDS011;8136;53.172;8.256;2022-07-15T12:10:08;2.10;;;0.60;;
16063;SDS011;8136;53.172;8.256;2022-07-15T12:12:40;2.17;;;0.60;;
16063;SDS011;8136;53.172;8.256;2022-07-15T12:15:09;1.03;;;0.40;;
16063;SDS011;8136;53.172;8.256;2022-07-15T12:17:37;0.90;;;0.40;;
16063;SDS011;8136;53.172;8.256;2022-07-15T12:20:06;0.33;;;0.20;;
16063;SDS011;8136;53.172;8.256;2022-07-15T12:22:34;0.93;;;0.33;;
16063;SDS011;8136;53.172;8.256;2022-07-15T12:25:00;2.00;;;0.40;;
16063;SDS011;8136;53.172;8.256;2022-07-15T12:27:31;1.13;;;0.40;;
16063;SDS011;8136;53.172;8.256;2022-07-15T12:30:00;1.10;;;0.43;;
16063;SDS011;8136;53.172;8.256;2022-07-15T12:32:28;1.10;;;0.50;;
16063;SDS011;8136;53.172;8.256;2022-07-15T12:34:56;0.90;;;0.57;;
16063;SDS011;8136;53.172;8.256;2022-07-15T12:37:24;1.30;;;0.50;;
16063;SDS011;8136;53.172;8.256;2022-07-15T12:39:53;1.50;;;0.50;;
16063;SDS011;8136;53.172;8.256;2022-07-15T12:42:21;1.90;;;0.50;;
16063;SDS011;8136;53.172;8.256;2022-07-15T12:47:38;1.80;;;0.27;;
16063;SDS011;8136;53.172;8.256;2022-07-15T12:50:22;1.63;;;0.50;;
16063;SDS011;8136;53.172;8.256;2022-07-15T12:52:49;1.30;;;0.40;;
16063;SDS011;8136;53.172;8.256;2022-07-15T12:55:17;0.27;;;0.20;;
16063;SDS011;8136;53.172;8.256;2022-07-15T12:57:45;1.27;;;0.50;;
16063;SDS011;8136;53.172;8.256;2022-07-15T13:00:14;3.90;;;0.40;;
16063;SDS011;8136;53.172;8.256;2022-07-15T13:02:56;1.00;;;0.40;;
16063;SDS011;8136;53.172;8.256;2022-07-15T13:05:30;1.77;;;0.50;;
16063;SDS011;8136;53.172;8.256;2022-07-15T13:07:58;0.90;;;0.40;;
16063;SDS011;8136;53.172;8.256;2022-07-15T13:10:27;1.67;;;0.33;;
16063;SDS011;8136;53.172;8.256;2022-07-15T13:12:55;2.07;;;0.50;;
16063;SDS011;8136;53.172;8.256;2022-07-15T13:15:22;2.57;;;0.40;;
16063;SDS011;8136;53.172;8.256;2022-07-15T13:17:50;0.70;;;0.40;;
16063;SDS011;8136;53.172;8.256;2022-07-15T13:20:18;1.43;;;0.60;;
16063;SDS011;8136;53.172;8.256;2022-07-15T13:22:45;0.83;;;0.47;;
16063;SDS011;8136;53.172;8.256;2022-07-15T13:25:12;1.40;;;0.63;;
16063;SDS011;8136;53.172;8.256;2022-07-15T13:27:39;2.93;;;0.60;;
16063;SDS011;8136;53.172;8.256;2022-07-15T13:30:07;2.67;;;0.57;;
16063;SDS011;8136;53.172;8.256;2022-07-15T13:32:35;2.47;;;0.50;;
16063;SDS011;8136;53.172;8.256;2022-07-15T13:35:02;1.43;;;0.50;;
16063;SDS011;8136;53.172;8.256;2022-07-15T13:37:30;0.93;;;0.50;;
16063;SDS011;8136;53.172;8.256;2022-07-15T13:39:57;2.20;;;0.43;;
16063;SDS011;8136;53.172;8.256;2022-07-15T13:42:24;1.53;;;0.50;;
16063;SDS011;8136;53.172;8.256;2022-07-15T13:44:51;1.10;;;0.50;;
16063;SDS011;8136;53.172;8.256;2022-07-15T13:47:18;0.50;;;0.30;;
16063;SDS011;8136;53.172;8.256;2022-07-15T13:49:45;0.60;;;0.40;;
16063;SDS011;8136;53.172;8.256;2022-07-15T13:52:31;1.93;;;0.60;;
16063;SDS011;8136;53.172;8.256;2022-07-15T13:54:58;1.00;;;0.40;;
16063;SDS011;8136;53.172;8.256;2022-07-15T13:57:25;0.43;;;0.27;;
16063;SDS011;8136;53.172;8.256;2022-07-15T13:59:51;1.10;;;0.27;;
16063;SDS011;8136;53.172;8.256;2022-07-15T14:02:18;2.53;;;0.67;;
16063;SDS011;8136;53.172;8.256;2022-07-15T14:04:45;2.47;;;0.60;;
16063;SDS011;8136;53.172;8.256;2022-07-15T14:07:12;3.27;;;0.77;;
16063;SDS011;8136;53.172;8.256;2022-07-15T14:09:40;1.53;;;0.70;;
16063;SDS011;8136;53.172;8.256;2022-07-15T14:12:07;3.50;;;0.70;;
16063;SDS011;8136;53.172;8.256;2022-07-15T14:14:34;1.53;;;0.60;;
16063;SDS011;8136;53.172;8.256;2022-07-15T14:17:00;1.83;;;0.73;;
16063;SDS011;8136;53.172;8.256;2022-07-15T14:19:27;2.30;;;1.03;;
16063;SDS011;8136;53.172;8.256;2022-07-15T14:21:54;2.70;;;0.90;;
16063;SDS011;8136;53.172;8.256;2022-07-15T14:24:20;1.43;;;0.70;;
16063;SDS011;8136;53.172;8.256;2022-07-15T14:26:49;2.10;;;0.83;;
16063;SDS011;8136;53.172;8.256;2022-07-15T14:29:15;2.23;;;1.00;;
16063;SDS011;8136;53.172;8.256;2022-07-15T14:31:42;2.23;;;0.90;;
16063;SDS011;8136;53.172;8.256;2022-07-15T14:34:09;1.73;;;0.80;;
16063;SDS011;8136;53.172;8.256;2022-07-15T14:36:36;2.97;;;0.90;;
16063;SDS011;8136;53.172;8.256;2022-07-15T14:39:03;1.80;;;0.87;;
16063;SDS011;8136;53.172;8.256;2022-07-15T14:41:30;1.80;;;0.90;;
16063;SDS011;8136;53.172;8.256;2022-07-15T14:43:58;1.53;;;0.90;;
16063;SDS011;8136;53.172;8.256;2022-07-15T14:46:25;1.73;;;0.90;;
16063;SDS011;8136;53.172;8.256;2022-07-15T14:48:52;2.00;;;0.87;;
16063;SDS011;8136;53.172;8.256;2022-07-15T14:51:20;1.60;;;0.77;;
16063;SDS011;8136;53.172;8.256;2022-07-15T14:53:47;2.50;;;0.80;;
16063;SDS011;8136;53.172;8.256;2022-07-15T14:56:14;1.90;;;0.80;;
16063;SDS011;8136;53.172;8.256;2022-07-15T14:58:40;0.87;;;0.80;;
16063;SDS011;8136;53.172;8.256;2022-07-15T15:01:09;3.17;;;0.73;;
16063;SDS011;8136;53.172;8.256;2022-07-15T15:03:36;2.07;;;0.93;;
16063;SDS011;8136;53.172;8.256;2022-07-15T15:06:03;1.47;;;0.80;;
16063;SDS011;8136;53.172;8.256;2022-07-15T15:08:30;2.87;;;0.80;;
16063;SDS011;8136;53.172;8.256;2022-07-15T15:10:57;1.07;;;0.60;;
16063;SDS011;8136;53.172;8.256;2022-07-15T15:13:24;1.50;;;0.70;;
16063;SDS011;8136;53.172;8.256;2022-07-15T15:15:50;1.67;;;0.47;;
16063;SDS011;8136;53.172;8.256;2022-07-15T15:18:19;3.33;;;1.17;;
16063;SDS011;8136;53.172;8.256;2022-07-15T15:20:46;1.80;;;0.93;;
16063;SDS011;8136;53.172;8.256;2022-07-15T15:23:12;0.93;;;0.53;;
16063;SDS011;8136;53.172;8.256;2022-07-15T15:25:39;3.70;;;0.90;;
16063;SDS011;8136;53.172;8.256;2022-07-15T15:28:24;0.70;;;0.50;;
16063;SDS011;8136;53.172;8.256;2022-07-15T15:30:50;1.40;;;0.70;;
16063;SDS011;8136;53.172;8.256;2022-07-15T15:33:18;2.10;;;0.83;;
16063;SDS011;8136;53.172;8.256;2022-07-15T15:35:45;1.57;;;0.70;;